createdAt,value
2023-04-12T00:02:23.683Z,16.30
2023-04-12T00:04:56.729Z,16.10
2023-04-12T00:07:29.049Z,16.00
2023-04-12T00:10:02.252Z,15.90
2023-04-12T00:12:32.579Z,15.80
2023-04-12T00:15:02.808Z,15.80
2023-04-12T00:17:33.356Z,15.70
2023-04-12T00:20:06.591Z,15.60
2023-04-12T00:22:37.660Z,15.50
2023-04-12T00:25:10.098Z,15.30
2023-04-12T00:27:41.092Z,15.00
2023-04-12T00:30:12.677Z,14.90
2023-04-12T00:32:44.698Z,14.80
2023-04-12T00:35:16.471Z,14.80
2023-04-12T00:37:48.124Z,14.90
2023-04-12T00:40:30.629Z,15.00
2023-04-12T00:43:03.316Z,15.00
2023-04-12T00:45:35.711Z,14.90
2023-04-12T00:48:11.769Z,14.90
2023-04-12T00:50:46.180Z,14.80
2023-04-12T00:53:18.970Z,14.80
2023-04-12T00:55:53.901Z,14.80
2023-04-12T00:58:27.009Z,14.80
2023-04-12T01:00:58.723Z,14.70
2023-04-12T01:03:31.777Z,14.70
2023-04-12T01:06:16.049Z,14.70
2023-04-12T01:08:57.885Z,14.70
2023-04-12T01:11:39.123Z,14.60
2023-04-12T01:14:17.314Z,14.50
2023-04-12T01:16:55.594Z,14.50
2023-04-12T01:19:47.898Z,14.40
2023-04-12T01:22:36.596Z,14.40
2023-04-12T01:25:24.852Z,14.30
2023-04-12T01:28:02.466Z,14.30
2023-04-12T01:30:49.782Z,14.30
2023-04-12T01:33:25.191Z,14.30
2023-04-12T01:35:59.808Z,14.20
2023-04-12T01:38:34.259Z,14.20
2023-04-12T01:41:12.068Z,14.10
2023-04-12T01:43:53.693Z,14.10
2023-04-12T01:46:29.086Z,14.00
2023-04-12T01:49:01.908Z,14.00
2023-04-12T01:51:46.512Z,13.90
2023-04-12T01:54:24.067Z,13.80
2023-04-12T01:57:00.353Z,13.80
2023-04-12T01:59:40.783Z,13.80
2023-04-12T02:02:13.568Z,13.90
2023-04-12T02:04:49.734Z,13.80
2023-04-12T02:07:22.673Z,13.80
2023-04-12T02:10:00.274Z,13.80
2023-04-12T02:12:31.401Z,13.70
2023-04-12T02:15:11.687Z,13.60
2023-04-12T02:17:44.681Z,13.50
2023-04-12T02:20:19.010Z,13.40
2023-04-12T02:22:50.928Z,13.20
2023-04-12T02:25:24.325Z,13.10
2023-04-12T02:27:56.428Z,13.00
2023-04-12T02:30:32.106Z,12.90
2023-04-12T02:33:12.410Z,12.80
2023-04-12T02:35:47.351Z,12.60
2023-04-12T02:38:21.243Z,12.50
2023-04-12T02:40:52.839Z,12.50
2023-04-12T02:43:24.331Z,12.40
2023-04-12T02:45:57.144Z,12.40
2023-04-12T02:48:29.981Z,12.30
2023-04-12T02:51:01.939Z,12.30
2023-04-12T02:53:36.585Z,12.30
2023-04-12T02:56:09.340Z,12.30
2023-04-12T02:58:42.110Z,12.30
2023-04-12T03:01:20.340Z,12.40
2023-04-12T03:03:55.834Z,12.40
2023-04-12T03:06:28.638Z,12.40
2023-04-12T03:09:00.355Z,12.40
2023-04-12T03:11:31.975Z,12.40
2023-04-12T03:14:02.971Z,12.50
2023-04-12T03:16:36.505Z,12.50
2023-04-12T03:19:07.775Z,12.50
2023-04-12T03:21:40.494Z,12.50
2023-04-12T03:24:11.769Z,12.40
2023-04-12T03:26:43.376Z,12.20
2023-04-12T03:29:15.915Z,12.20
2023-04-12T03:31:51.262Z,12.20
2023-04-12T03:34:22.911Z,12.20
2023-04-12T03:36:54.723Z,12.00
2023-04-12T03:39:28.570Z,12.00
2023-04-12T03:42:01.567Z,11.90
2023-04-12T03:44:33.698Z,11.80
2023-04-12T03:47:06.121Z,11.70
2023-04-12T03:49:39.280Z,11.70
2023-04-12T03:52:10.309Z,11.70
2023-04-12T03:54:41.299Z,11.70
2023-04-12T03:57:12.031Z,11.70
2023-04-12T03:59:42.868Z,11.60
2023-04-12T04:02:15.677Z,11.60
2023-04-12T04:04:46.967Z,11.40
2023-04-12T04:07:17.799Z,11.40
2023-04-12T04:09:48.521Z,11.30
2023-04-12T04:12:20.806Z,11.20
2023-04-12T04:14:52.158Z,11.10
2023-04-12T04:17:27.873Z,11.00
2023-04-12T04:19:59.350Z,11.00
2023-04-12T04:22:30.285Z,10.90
2023-04-12T04:25:03.103Z,10.90
2023-04-12T04:27:35.120Z,10.90
2023-04-12T04:30:07.019Z,10.80
2023-04-12T04:32:39.291Z,10.70
2023-04-12T04:35:19.925Z,10.70
2023-04-12T04:37:50.325Z,10.80
2023-04-12T04:40:22.117Z,10.70
2023-04-12T04:42:55.450Z,10.70
2023-04-12T04:45:27.694Z,10.60
2023-04-12T04:48:01.474Z,10.50
2023-04-12T04:50:32.151Z,10.40
2023-04-12T04:53:03.510Z,10.30
2023-04-12T04:55:39.707Z,10.20
2023-04-12T04:58:10.094Z,10.20
2023-04-12T05:00:40.892Z,10.00
2023-04-12T05:03:13.545Z,10.00
2023-04-12T05:05:45.670Z,9.90
2023-04-12T05:08:16.501Z,9.80
2023-04-12T05:10:47.273Z,9.70
2023-04-12T05:13:18.596Z,9.70
2023-04-12T05:15:49.290Z,9.80
2023-04-12T05:18:22.292Z,9.70
2023-04-12T05:20:52.754Z,9.60
2023-04-12T05:23:23.259Z,9.50
2023-04-12T05:25:54.233Z,9.40
2023-04-12T05:28:24.749Z,9.30
2023-04-12T05:30:55.325Z,9.30
2023-04-12T05:33:27.243Z,9.20
2023-04-12T05:35:58.764Z,9.20
2023-04-12T05:38:29.358Z,9.10
2023-04-12T05:41:00.747Z,9.10
2023-04-12T05:43:31.136Z,9.20
2023-04-12T05:46:01.983Z,9.10
2023-04-12T05:48:34.018Z,9.00
2023-04-12T05:51:06.568Z,9.00
2023-04-12T05:53:40.447Z,8.90
2023-04-12T05:56:11.497Z,8.70
2023-04-12T05:58:41.770Z,8.60
2023-04-12T06:01:12.275Z,8.50
2023-04-12T06:03:44.264Z,8.40
2023-04-12T06:06:15.377Z,8.30
2023-04-12T06:08:45.968Z,8.00
2023-04-12T06:11:16.941Z,7.90
2023-04-12T06:13:47.493Z,7.80
2023-04-12T06:16:17.908Z,7.70
2023-04-12T06:18:50.269Z,7.70
2023-04-12T06:21:21.026Z,7.60
2023-04-12T06:23:52.583Z,7.50
2023-04-12T06:26:23.113Z,7.40
2023-04-12T06:28:54.175Z,7.30
2023-04-12T06:31:24.648Z,7.20
2023-04-12T06:33:56.646Z,7.10
2023-04-12T06:36:27.198Z,7.10
2023-04-12T06:39:00.958Z,7.10
2023-04-12T06:41:31.516Z,7.10
2023-04-12T06:44:01.859Z,7.10
2023-04-12T06:46:33.220Z,7.10
2023-04-12T06:49:05.304Z,7.20
2023-04-12T06:51:36.205Z,7.20
2023-04-12T06:54:06.804Z,7.20
2023-04-12T06:56:39.154Z,7.20
2023-04-12T06:59:09.835Z,7.20
2023-04-12T07:01:41.403Z,7.30
2023-04-12T07:04:15.380Z,7.30
2023-04-12T07:06:45.938Z,7.20
2023-04-12T07:09:16.364Z,7.20
2023-04-12T07:11:46.606Z,7.20
2023-04-12T07:14:17.044Z,7.20
2023-04-12T07:16:47.563Z,7.40
2023-04-12T07:19:19.506Z,7.70
2023-04-12T07:21:49.737Z,7.90
2023-04-12T07:24:20.168Z,8.00
2023-04-12T07:26:50.793Z,8.20
2023-04-12T07:29:21.442Z,8.30
2023-04-12T07:31:51.803Z,8.40
2023-04-12T07:34:24.758Z,8.40
2023-04-12T07:36:55.204Z,8.40
2023-04-12T07:39:25.394Z,8.50
2023-04-12T07:41:55.605Z,8.40
2023-04-12T07:44:25.779Z,8.40
2023-04-12T07:46:56.119Z,8.50
2023-04-12T07:49:27.858Z,8.40
2023-04-12T07:51:58.345Z,8.40
2023-04-12T07:54:30.765Z,8.30
2023-04-12T07:57:02.092Z,8.30
2023-04-12T07:59:32.598Z,8.40
2023-04-12T08:02:04.410Z,8.40
2023-04-12T08:04:36.571Z,8.30
2023-04-12T08:07:06.976Z,8.30
2023-04-12T08:09:37.165Z,8.20
2023-04-12T08:12:07.823Z,8.20
2023-04-12T08:14:39.743Z,8.20
2023-04-12T08:17:11.943Z,8.10
2023-04-12T08:19:44.055Z,8.10
2023-04-12T08:22:14.265Z,8.20
2023-04-12T08:24:44.500Z,8.40
2023-04-12T08:27:14.710Z,8.50
2023-04-12T08:29:45.600Z,8.50
2023-04-12T08:32:17.267Z,8.50
2023-04-12T08:34:49.138Z,8.50
2023-04-12T08:37:19.486Z,8.50
2023-04-12T08:39:49.633Z,8.50
2023-04-12T08:42:20.963Z,8.50
2023-04-12T08:44:52.872Z,8.50
2023-04-12T08:47:24.508Z,8.50
2023-04-12T08:49:58.318Z,8.40
2023-04-12T08:52:29.111Z,8.40
2023-04-12T08:54:59.410Z,8.30
2023-04-12T08:57:31.303Z,8.20
2023-04-12T09:00:03.625Z,8.20
2023-04-12T09:02:34.002Z,8.20
2023-04-12T09:05:07.107Z,8.40
2023-04-12T09:07:38.366Z,8.40
2023-04-12T09:10:09.618Z,8.40
2023-04-12T09:12:50.938Z,8.60
2023-04-12T09:15:22.625Z,8.70
2023-04-12T09:18:05.002Z,8.80
2023-04-12T09:20:37.131Z,8.80
2023-04-12T09:23:20.807Z,8.70
2023-04-12T09:25:53.799Z,8.60
2023-04-12T09:28:26.620Z,8.50
2023-04-12T09:30:57.512Z,8.50
2023-04-12T09:33:37.355Z,8.50
2023-04-12T09:36:15.043Z,8.40
2023-04-12T09:39:02.651Z,8.40
2023-04-12T09:41:33.602Z,8.40
2023-04-12T09:44:04.347Z,8.40
2023-04-12T09:46:34.739Z,8.30
2023-04-12T09:49:06.359Z,8.40
2023-04-12T09:51:38.518Z,8.30
2023-04-12T09:54:09.826Z,8.40
2023-04-12T09:56:40.748Z,8.40
2023-04-12T09:59:11.105Z,8.40
2023-04-12T10:01:44.874Z,8.30
2023-04-12T10:04:15.702Z,8.20
2023-04-12T10:06:49.624Z,8.30
2023-04-12T10:09:20.208Z,8.20
2023-04-12T10:11:52.741Z,8.20
2023-04-12T10:14:24.971Z,8.20
2023-04-12T10:16:57.775Z,8.20
2023-04-12T10:19:29.861Z,8.20
2023-04-12T10:22:02.252Z,8.20
2023-04-12T10:24:32.947Z,8.20
2023-04-12T10:27:04.869Z,8.20
2023-04-12T10:29:37.990Z,8.20
2023-04-12T10:32:24.479Z,8.20
2023-04-12T10:34:56.968Z,8.30
2023-04-12T10:38:03.212Z,8.30
2023-04-12T10:40:34.284Z,8.50
2023-04-12T10:43:30.693Z,8.50
2023-04-12T10:46:05.160Z,8.50
2023-04-12T10:48:36.836Z,8.50
2023-04-12T10:51:24.025Z,8.70
2023-04-12T10:53:57.193Z,8.60
2023-04-12T10:56:42.196Z,8.70
2023-04-12T10:59:15.167Z,8.80
2023-04-12T11:02:06.903Z,8.80
2023-04-12T11:04:38.477Z,8.80
2023-04-12T11:07:12.468Z,8.80
2023-04-12T11:09:46.095Z,8.80
2023-04-12T11:12:17.513Z,8.70
2023-04-12T11:14:49.183Z,8.70
2023-04-12T11:17:27.058Z,8.70
2023-04-12T11:20:02.481Z,8.70
2023-04-12T11:22:34.410Z,8.80
2023-04-12T11:25:07.166Z,8.80
2023-04-12T11:27:38.690Z,8.80
2023-04-12T11:30:10.418Z,8.90
2023-04-12T11:32:42.309Z,8.80
2023-04-12T11:35:12.772Z,8.80
2023-04-12T11:37:43.086Z,8.90
2023-04-12T11:40:15.507Z,8.80
2023-04-12T11:42:48.215Z,8.80
2023-04-12T11:45:23.133Z,8.70
2023-04-12T11:47:55.355Z,8.50
2023-04-12T11:50:32.891Z,8.40
2023-04-12T11:53:17.108Z,8.20
2023-04-12T11:55:53.087Z,8.10
2023-04-12T11:58:26.762Z,8.20
2023-04-12T12:00:59.475Z,8.20
2023-04-12T12:03:30.425Z,8.20
2023-04-12T12:06:01.034Z,8.30
2023-04-12T12:08:31.964Z,8.30
2023-04-12T12:11:07.713Z,8.40
2023-04-12T12:13:55.120Z,8.50
2023-04-12T12:16:28.762Z,8.60
2023-04-12T12:19:00.126Z,8.70
2023-04-12T12:21:30.269Z,8.80
2023-04-12T12:24:00.871Z,8.80
2023-04-12T12:26:33.043Z,8.80
2023-04-12T12:29:03.436Z,8.90
2023-04-12T12:31:34.267Z,8.90
2023-04-12T12:34:08.371Z,8.90
2023-04-12T12:36:40.017Z,8.80
2023-04-12T12:39:12.838Z,8.80
2023-04-12T12:41:44.876Z,8.90
2023-04-12T12:44:15.079Z,8.90
2023-04-12T12:46:55.310Z,8.90
2023-04-12T12:49:31.194Z,8.80
2023-04-12T12:52:01.845Z,8.70
2023-04-12T12:54:41.149Z,8.50
2023-04-12T12:57:13.739Z,8.50
2023-04-12T12:59:44.116Z,8.50
2023-04-12T13:02:16.310Z,8.60
2023-04-12T13:04:46.715Z,8.70
2023-04-12T13:07:17.207Z,8.80
2023-04-12T13:09:48.750Z,8.90
2023-04-12T13:12:22.689Z,9.10
2023-04-12T13:14:57.965Z,9.20
2023-04-12T13:17:34.252Z,9.30
2023-04-12T13:20:05.121Z,9.50
2023-04-12T13:22:35.440Z,9.50
2023-04-12T13:25:05.774Z,9.50
2023-04-12T13:27:38.654Z,9.60
2023-04-12T13:30:10.651Z,9.60
2023-04-12T13:32:40.973Z,9.70
2023-04-12T13:35:11.669Z,9.80
2023-04-12T13:37:42.535Z,9.90
2023-04-12T13:40:13.922Z,10.00
2023-04-12T13:42:45.729Z,10.10
2023-04-12T13:45:16.354Z,10.00
2023-04-12T13:47:46.705Z,10.00
2023-04-12T13:50:16.994Z,9.90
2023-04-12T13:52:47.315Z,10.00
2023-04-12T13:55:17.965Z,10.00
2023-04-12T13:57:49.793Z,10.00
2023-04-12T14:00:21.277Z,10.20
2023-04-12T14:02:51.643Z,10.30
2023-04-12T14:05:22.151Z,10.30
2023-04-12T14:07:53.213Z,10.40
2023-04-12T14:10:23.462Z,10.50
2023-04-12T14:12:55.500Z,10.80
2023-04-12T14:15:25.934Z,10.90
2023-04-12T14:17:56.553Z,11.00
2023-04-12T14:20:26.940Z,11.20
2023-04-12T14:22:57.594Z,11.40
2023-04-12T14:25:28.038Z,11.60
2023-04-12T14:28:00.105Z,11.70
2023-04-12T14:30:30.508Z,11.90
2023-04-12T14:33:00.969Z,12.00
2023-04-12T14:35:31.513Z,11.80
2023-04-12T14:38:01.770Z,11.80
2023-04-12T14:40:32.505Z,11.90
2023-04-12T14:43:04.441Z,12.00
2023-04-12T14:45:34.736Z,12.20
2023-04-12T14:48:05.083Z,12.40
2023-04-12T14:50:35.534Z,12.60
2023-04-12T14:53:06.167Z,12.80
2023-04-12T14:55:36.764Z,12.90
2023-04-12T14:58:09.086Z,13.00
2023-04-12T15:00:39.697Z,13.10
2023-04-12T15:03:10.985Z,13.10
2023-04-12T15:05:41.596Z,13.10
2023-04-12T15:08:11.869Z,13.30
2023-04-12T15:10:42.108Z,13.50
2023-04-12T15:13:14.132Z,13.60
2023-04-12T15:15:47.886Z,13.60
2023-04-12T15:18:18.184Z,13.50
2023-04-12T15:20:48.401Z,13.40
2023-04-12T15:23:18.573Z,13.40
2023-04-12T15:25:49.102Z,13.50
2023-04-12T15:28:20.842Z,13.50
2023-04-12T15:30:51.084Z,13.60
2023-04-12T15:33:21.365Z,13.40
2023-04-12T15:35:51.979Z,13.30
2023-04-12T15:38:23.673Z,13.30
2023-04-12T15:40:57.920Z,13.30
2023-04-12T15:43:30.402Z,13.30
2023-04-12T15:46:02.093Z,13.20
2023-04-12T15:48:32.284Z,13.30
2023-04-12T15:51:02.683Z,13.40
2023-04-12T15:53:33.239Z,13.60
2023-04-12T15:56:05.182Z,13.90
2023-04-12T15:58:38.579Z,14.10
2023-04-12T16:01:09.639Z,14.20
2023-04-12T16:03:40.663Z,14.40
2023-04-12T16:06:11.356Z,14.80
2023-04-12T16:08:41.944Z,14.90
2023-04-12T16:11:13.898Z,15.10
2023-04-12T16:13:46.256Z,15.30
2023-04-12T16:16:18.053Z,15.50
2023-04-12T16:18:48.584Z,15.60
2023-04-12T16:21:20.662Z,15.80
2023-04-12T16:23:51.520Z,15.90
2023-04-12T16:26:23.010Z,15.70
2023-04-12T16:28:55.159Z,15.70
2023-04-12T16:31:26.128Z,15.70
2023-04-12T16:33:56.340Z,15.80
2023-04-12T16:36:27.858Z,15.80
2023-04-12T16:39:00.257Z,15.90
2023-04-12T16:41:30.594Z,15.80
2023-04-12T16:44:03.977Z,16.20
2023-04-12T16:46:34.564Z,16.30
2023-04-12T16:49:05.467Z,16.30
2023-04-12T16:51:36.686Z,16.70
2023-04-12T16:54:08.250Z,16.80
2023-04-12T16:56:38.714Z,17.40
2023-04-12T16:59:11.311Z,17.80
2023-04-12T17:01:42.188Z,18.10
2023-04-12T17:04:13.654Z,18.60
2023-04-12T17:06:44.932Z,18.90
2023-04-12T17:09:15.454Z,18.70
2023-04-12T17:11:45.658Z,18.80
2023-04-12T17:14:17.529Z,19.20
2023-04-12T17:16:48.266Z,19.00
2023-04-12T17:19:20.850Z,18.90
2023-04-12T17:21:51.179Z,19.00
2023-04-12T17:24:21.663Z,19.10
2023-04-12T17:26:52.293Z,19.20
2023-04-12T17:29:24.776Z,19.40
2023-04-12T17:31:55.224Z,19.50
2023-04-12T17:34:25.505Z,19.70
2023-04-12T17:36:55.977Z,19.80
2023-04-12T17:39:26.528Z,20.00
2023-04-12T17:41:56.877Z,19.90
2023-04-12T17:44:28.968Z,19.80
2023-04-12T17:46:59.367Z,19.90
2023-04-12T17:49:29.778Z,19.90
2023-04-12T17:52:02.088Z,19.70
2023-04-12T17:54:34.196Z,19.80
2023-04-12T17:57:04.899Z,19.40
2023-04-12T17:59:37.314Z,19.20
2023-04-12T18:02:08.123Z,19.40
2023-04-12T18:04:39.308Z,19.80
2023-04-12T18:07:11.082Z,20.00
2023-04-12T18:09:42.899Z,20.00
2023-04-12T18:12:13.862Z,20.20
2023-04-12T18:14:46.480Z,20.50
2023-04-12T18:17:16.910Z,20.90
2023-04-12T18:19:47.140Z,21.20
2023-04-12T18:22:17.578Z,21.50
2023-04-12T18:24:48.090Z,21.10
2023-04-12T18:27:18.431Z,20.80
2023-04-12T18:29:50.448Z,20.60
2023-04-12T18:32:20.833Z,20.50
2023-04-12T18:34:51.169Z,20.40
2023-04-12T18:37:22.200Z,20.40
2023-04-12T18:39:53.268Z,20.40
2023-04-12T18:42:23.980Z,20.40
2023-04-12T18:44:57.124Z,20.70
2023-04-12T18:47:29.697Z,21.00
2023-04-12T18:50:00.369Z,21.10
2023-04-12T18:52:30.889Z,21.30
2023-04-12T18:55:01.970Z,21.40
2023-04-12T18:57:32.685Z,21.50
2023-04-12T19:00:11.444Z,21.50
2023-04-12T19:02:42.120Z,21.00
2023-04-12T19:05:15.371Z,20.90
2023-04-12T19:07:45.983Z,21.00
2023-04-12T19:10:16.815Z,21.30
2023-04-12T19:12:47.441Z,21.30
2023-04-12T19:15:19.892Z,21.30
2023-04-12T19:17:50.697Z,21.60
2023-04-12T19:20:21.770Z,21.70
2023-04-12T19:22:52.513Z,21.60
2023-04-12T19:25:22.920Z,21.80
2023-04-12T19:27:53.708Z,21.70
2023-04-12T19:30:26.474Z,21.70
2023-04-12T19:32:57.009Z,21.60
2023-04-12T19:35:29.519Z,21.20
2023-04-12T19:38:00.383Z,21.20
2023-04-12T19:40:31.241Z,21.40
2023-04-12T19:43:01.998Z,21.50
2023-04-12T19:45:34.102Z,21.50
2023-04-12T19:48:05.095Z,21.40
2023-04-12T19:50:36.877Z,21.60
2023-04-12T19:53:08.874Z,21.80
2023-04-12T19:55:40.772Z,21.50
2023-04-12T19:58:11.098Z,21.40
2023-04-12T20:00:44.254Z,21.70
2023-04-12T20:03:14.643Z,21.70
2023-04-12T20:05:46.930Z,22.00
2023-04-12T20:08:17.712Z,22.10
2023-04-12T20:10:48.124Z,22.00
2023-04-12T20:13:18.696Z,21.90
2023-04-12T20:15:51.737Z,22.00
2023-04-12T20:18:22.544Z,21.80
2023-04-12T20:20:53.899Z,21.60
2023-04-12T20:23:24.722Z,21.60
2023-04-12T20:25:56.457Z,21.40
2023-04-12T20:28:28.491Z,21.50
2023-04-12T20:31:03.532Z,21.30
2023-04-12T20:33:37.354Z,21.10
2023-04-12T20:36:15.143Z,21.10
2023-04-12T20:38:48.400Z,21.00
2023-04-12T20:41:20.499Z,21.40
2023-04-12T20:44:00.686Z,21.30
2023-04-12T20:46:41.534Z,21.20
2023-04-12T20:49:15.440Z,21.20
2023-04-12T20:51:47.455Z,21.10
2023-04-12T20:54:19.292Z,21.20
2023-04-12T20:56:56.055Z,21.30
2023-04-12T20:59:33.247Z,21.40
2023-04-12T21:02:05.462Z,21.60
2023-04-12T21:04:37.553Z,21.70
2023-04-12T21:07:09.285Z,21.60
2023-04-12T21:09:40.123Z,21.50
2023-04-12T21:12:12.006Z,21.30
2023-04-12T21:14:43.152Z,21.50
2023-04-12T21:17:15.626Z,21.50
2023-04-12T21:19:47.072Z,21.80
2023-04-12T21:22:17.442Z,21.80
2023-04-12T21:24:47.861Z,21.90
2023-04-12T21:27:18.073Z,22.00
2023-04-12T21:29:48.697Z,21.80
2023-04-12T21:32:21.185Z,21.80
2023-04-12T21:34:52.056Z,22.00
2023-04-12T21:37:22.825Z,22.10
2023-04-12T21:39:53.349Z,21.90
2023-04-12T21:42:23.605Z,22.00
2023-04-12T21:44:53.860Z,22.20
2023-04-12T21:47:25.716Z,22.10
2023-04-12T21:49:56.166Z,22.20
2023-04-12T21:52:27.872Z,21.90
2023-04-12T21:54:58.254Z,21.80
2023-04-12T21:57:31.256Z,21.60
2023-04-12T22:00:01.760Z,21.50
2023-04-12T22:02:34.182Z,21.50
2023-04-12T22:05:05.356Z,21.40
2023-04-12T22:07:36.119Z,21.60
2023-04-12T22:10:06.988Z,21.60
2023-04-12T22:12:38.075Z,21.50
2023-04-12T22:15:09.866Z,21.60
2023-04-12T22:17:42.112Z,21.70
2023-04-12T22:20:13.479Z,21.50
2023-04-12T22:22:44.413Z,21.40
2023-04-12T22:25:16.077Z,21.20
2023-04-12T22:27:47.162Z,21.00
2023-04-12T22:30:17.931Z,20.80
2023-04-12T22:32:49.833Z,20.80
2023-04-12T22:35:21.461Z,20.70
2023-04-12T22:37:52.575Z,20.60
2023-04-12T22:40:23.534Z,20.30
2023-04-12T22:42:54.491Z,20.20
2023-04-12T22:45:25.122Z,20.00
2023-04-12T22:47:57.518Z,19.80
2023-04-12T22:50:29.506Z,19.50
2023-04-12T22:53:00.354Z,19.30
2023-04-12T22:55:31.312Z,19.10
2023-04-12T22:58:02.386Z,19.00
2023-04-12T23:00:34.095Z,18.80
2023-04-12T23:03:11.393Z,18.50
2023-04-12T23:05:45.648Z,18.30
2023-04-12T23:08:18.404Z,18.00
2023-04-12T23:10:48.643Z,17.70
2023-04-12T23:13:20.663Z,17.50
2023-04-12T23:15:51.150Z,17.20
2023-04-12T23:18:26.261Z,17.00
2023-04-12T23:20:56.950Z,16.70
2023-04-12T23:23:27.661Z,16.50
2023-04-12T23:25:58.185Z,16.20
2023-04-12T23:28:29.296Z,16.00
2023-04-12T23:31:02.884Z,15.70
2023-04-12T23:33:35.531Z,15.30
2023-04-12T23:36:06.265Z,15.00
2023-04-12T23:38:39.350Z,14.70
2023-04-12T23:41:13.410Z,14.40
2023-04-12T23:43:43.882Z,14.20
2023-04-12T23:46:14.986Z,13.90
2023-04-12T23:48:47.457Z,13.70
2023-04-12T23:51:17.997Z,13.50
2023-04-12T23:53:48.755Z,13.30
2023-04-12T23:56:19.474Z,13.20
2023-04-12T23:58:50.088Z,13.00
